sensor_id;sensor_type;location;lat;lon;timestamp;pressure;altitude;pressure_sealevel;temperature;humidity
49515;BME280;35415;47.870;16.058;2023-02-10T00:01:15;99064.19;;;-4.88;67.88
49515;BME280;35415;47.870;16.058;2023-02-10T00:03:44;99075.84;;;-4.81;68.18
49515;BME280;35415;47.870;16.058;2023-02-10T00:06:13;99078.75;;;-4.84;68.80
49515;BME280;35415;47.870;16.058;2023-02-10T00:08:41;99076.13;;;-4.84;69.07
49515;BME280;35415;47.870;16.058;2023-02-10T00:11:10;99076.94;;;-4.83;68.86
49515;BME280;35415;47.870;16.058;2023-02-10T00:13:39;99077.19;;;-4.87;68.54
49515;BME280;35415;47.870;16.058;2023-02-10T00:16:07;99093.03;;;-4.88;68.85
49515;BME280;35415;47.870;16.058;2023-02-10T00:18:35;99077.44;;;-4.90;69.25
49515;BME280;35415;47.870;16.058;2023-02-10T00:21:11;99084.03;;;-4.95;68.65
49515;BME280;35415;47.870;16.058;2023-02-10T00:23:38;99091.31;;;-4.99;69.03
49515;BME280;35415;47.870;16.058;2023-02-10T00:26:10;99080.25;;;-5.02;69.26
49515;BME280;35415;47.870;16.058;2023-02-10T00:28:37;99092.63;;;-5.04;68.97
49515;BME280;35415;47.870;16.058;2023-02-10T00:31:05;99091.09;;;-5.07;68.41
49515;BME280;35415;47.870;16.058;2023-02-10T00:33:33;99099.34;;;-5.11;68.93
49515;BME280;35415;47.870;16.058;2023-02-10T00:36:03;99042.09;;;-5.50;69.31
49515;BME280;35415;47.870;16.058;2023-02-10T00:38:32;99052.78;;;-5.41;69.20
49515;BME280;35415;47.870;16.058;2023-02-10T00:41:02;99104.00;;;-5.15;69.72
49515;BME280;35415;47.870;16.058;2023-02-10T00:43:29;99109.38;;;-5.17;69.69
49515;BME280;35415;47.870;16.058;2023-02-10T00:45:56;99076.25;;;-5.29;69.59
49515;BME280;35415;47.870;16.058;2023-02-10T00:48:23;99100.53;;;-5.16;69.49
49515;BME280;35415;47.870;16.058;2023-02-10T00:50:50;99102.59;;;-5.19;70.15
49515;BME280;35415;47.870;16.058;2023-02-10T00:53:18;99108.06;;;-5.22;70.30
49515;BME280;35415;47.870;16.058;2023-02-10T00:55:46;99106.50;;;-5.25;70.95
49515;BME280;35415;47.870;16.058;2023-02-10T00:58:14;99118.09;;;-5.27;70.68
49515;BME280;35415;47.870;16.058;2023-02-10T01:00:41;99100.69;;;-5.28;71.21
49515;BME280;35415;47.870;16.058;2023-02-10T01:03:08;99107.03;;;-5.31;70.70
49515;BME280;35415;47.870;16.058;2023-02-10T01:05:39;99115.13;;;-5.34;70.74
49515;BME280;35415;47.870;16.058;2023-02-10T01:08:06;99115.38;;;-5.37;71.30
49515;BME280;35415;47.870;16.058;2023-02-10T01:10:34;99103.31;;;-5.39;70.91
49515;BME280;35415;47.870;16.058;2023-02-10T01:13:05;99107.28;;;-5.45;71.07
49515;BME280;35415;47.870;16.058;2023-02-10T01:15:33;99103.00;;;-5.46;71.07
49515;BME280;35415;47.870;16.058;2023-02-10T01:18:00;99103.94;;;-5.47;71.22
49515;BME280;35415;47.870;16.058;2023-02-10T01:20:27;99103.22;;;-5.49;71.04
49515;BME280;35415;47.870;16.058;2023-02-10T01:22:55;99091.22;;;-5.52;71.08
49515;BME280;35415;47.870;16.058;2023-02-10T01:25:22;99099.91;;;-5.51;71.32
49515;BME280;35415;47.870;16.058;2023-02-10T01:27:48;99080.84;;;-5.64;72.15
49515;BME280;35415;47.870;16.058;2023-02-10T01:30:17;99085.00;;;-5.62;71.46
49515;BME280;35415;47.870;16.058;2023-02-10T01:32:44;99099.28;;;-5.55;71.27
49515;BME280;35415;47.870;16.058;2023-02-10T01:35:11;99091.91;;;-5.61;71.89
49515;BME280;35415;47.870;16.058;2023-02-10T01:37:38;99098.13;;;-5.62;71.88
49515;BME280;35415;47.870;16.058;2023-02-10T01:40:08;99095.63;;;-5.63;72.29
49515;BME280;35415;47.870;16.058;2023-02-10T01:42:35;99089.66;;;-5.65;72.07
49515;BME280;35415;47.870;16.058;2023-02-10T01:45:13;99077.97;;;-5.72;72.19
49515;BME280;35415;47.870;16.058;2023-02-10T01:47:42;99081.09;;;-5.67;72.38
49515;BME280;35415;47.870;16.058;2023-02-10T01:50:11;99090.13;;;-5.71;72.04
49515;BME280;35415;47.870;16.058;2023-02-10T01:52:41;99085.84;;;-5.72;71.93
49515;BME280;35415;47.870;16.058;2023-02-10T01:55:11;99095.38;;;-5.71;71.91
49515;BME280;35415;47.870;16.058;2023-02-10T01:57:42;99093.69;;;-5.72;72.37
49515;BME280;35415;47.870;16.058;2023-02-10T02:00:11;99093.13;;;-5.76;72.05
49515;BME280;35415;47.870;16.058;2023-02-10T02:02:39;99090.75;;;-5.79;72.07
49515;BME280;35415;47.870;16.058;2023-02-10T02:05:19;99091.09;;;-5.84;71.94
49515;BME280;35415;47.870;16.058;2023-02-10T02:07:47;99097.31;;;-5.85;72.37
49515;BME280;35415;47.870;16.058;2023-02-10T02:10:15;99093.03;;;-5.86;72.59
49515;BME280;35415;47.870;16.058;2023-02-10T02:12:48;99102.78;;;-5.88;72.97
49515;BME280;35415;47.870;16.058;2023-02-10T02:15:23;99092.56;;;-5.91;73.34
49515;BME280;35415;47.870;16.058;2023-02-10T02:18:02;99038.34;;;-6.24;72.61
49515;BME280;35415;47.870;16.058;2023-02-10T02:23:59;99084.59;;;-6.00;73.66
49515;BME280;35415;47.870;16.058;2023-02-10T02:26:40;99075.19;;;-6.03;73.84
49515;BME280;35415;47.870;16.058;2023-02-10T02:29:39;99083.38;;;-6.08;73.79
49515;BME280;35415;47.870;16.058;2023-02-10T02:32:14;99069.69;;;-6.11;73.57
49515;BME280;35415;47.870;16.058;2023-02-10T02:34:48;99067.91;;;-6.11;74.72
49515;BME280;35415;47.870;16.058;2023-02-10T02:37:19;99067.91;;;-6.11;74.05
49515;BME280;35415;47.870;16.058;2023-02-10T02:39:50;99060.41;;;-6.15;74.60
49515;BME280;35415;47.870;16.058;2023-02-10T02:42:20;99065.75;;;-6.17;74.21
49515;BME280;35415;47.870;16.058;2023-02-10T02:44:50;99012.53;;;-6.51;74.02
49515;BME280;35415;47.870;16.058;2023-02-10T02:47:34;99044.31;;;-6.33;74.58
49515;BME280;35415;47.870;16.058;2023-02-10T02:50:17;99044.31;;;-6.33;74.67
49515;BME280;35415;47.870;16.058;2023-02-10T02:52:55;99054.91;;;-6.23;73.96
49515;BME280;35415;47.870;16.058;2023-02-10T02:55:38;99067.16;;;-6.24;74.72
49515;BME280;35415;47.870;16.058;2023-02-10T02:58:13;99042.78;;;-6.35;74.06
49515;BME280;35415;47.870;16.058;2023-02-10T03:00:44;99034.91;;;-6.47;74.32
49515;BME280;35415;47.870;16.058;2023-02-10T03:03:17;99065.75;;;-6.28;74.37
49515;BME280;35415;47.870;16.058;2023-02-10T03:05:44;99068.13;;;-6.25;75.11
49515;BME280;35415;47.870;16.058;2023-02-10T03:08:11;99073.47;;;-6.26;74.86
49515;BME280;35415;47.870;16.058;2023-02-10T03:10:38;99085.03;;;-6.29;74.48
49515;BME280;35415;47.870;16.058;2023-02-10T03:13:05;99088.59;;;-6.30;74.83
49515;BME280;35415;47.870;16.058;2023-02-10T03:15:33;99065.00;;;-6.52;74.50
49515;BME280;35415;47.870;16.058;2023-02-10T03:18:00;99078.47;;;-6.34;74.58
49515;BME280;35415;47.870;16.058;2023-02-10T03:20:29;99062.97;;;-6.49;74.69
49515;BME280;35415;47.870;16.058;2023-02-10T03:22:56;99065.72;;;-6.50;74.71
49515;BME280;35415;47.870;16.058;2023-02-10T03:25:23;99087.50;;;-6.39;75.13
49515;BME280;35415;47.870;16.058;2023-02-10T03:27:50;99092.63;;;-6.37;75.28
49515;BME280;35415;47.870;16.058;2023-02-10T03:30:17;99093.59;;;-6.38;75.41
49515;BME280;35415;47.870;16.058;2023-02-10T03:32:44;99077.25;;;-6.53;75.05
49515;BME280;35415;47.870;16.058;2023-02-10T03:35:14;99091.31;;;-6.43;74.71
49515;BME280;35415;47.870;16.058;2023-02-10T03:37:43;99080.81;;;-6.54;74.71
49515;BME280;35415;47.870;16.058;2023-02-10T03:40:11;99096.06;;;-6.48;75.39
49515;BME280;35415;47.870;16.058;2023-02-10T03:42:40;99064.19;;;-6.77;74.75
49515;BME280;35415;47.870;16.058;2023-02-10T03:45:07;99098.06;;;-6.51;75.04
49515;BME280;35415;47.870;16.058;2023-02-10T03:47:35;99095.06;;;-6.58;75.34
49515;BME280;35415;47.870;16.058;2023-02-10T03:50:02;99104.38;;;-6.54;75.19
49515;BME280;35415;47.870;16.058;2023-02-10T03:52:29;99103.44;;;-6.53;75.06
49515;BME280;35415;47.870;16.058;2023-02-10T03:54:57;99105.22;;;-6.53;75.20
49515;BME280;35415;47.870;16.058;2023-02-10T03:57:24;99108.88;;;-6.56;75.92
49515;BME280;35415;47.870;16.058;2023-02-10T03:59:51;99115.06;;;-6.57;75.52
49515;BME280;35415;47.870;16.058;2023-02-10T04:02:18;99096.59;;;-6.67;75.73
49515;BME280;35415;47.870;16.058;2023-02-10T04:04:46;99115.16;;;-6.58;76.03
49515;BME280;35415;47.870;16.058;2023-02-10T04:07:13;99111.84;;;-6.60;76.03
49515;BME280;35415;47.870;16.058;2023-02-10T04:09:40;99122.31;;;-6.60;75.61
49515;BME280;35415;47.870;16.058;2023-02-10T04:12:09;99089.88;;;-6.82;75.98
49515;BME280;35415;47.870;16.058;2023-02-10T04:14:36;99105.00;;;-6.74;75.96
49515;BME280;35415;47.870;16.058;2023-02-10T04:17:03;99126.94;;;-6.64;76.56
49515;BME280;35415;47.870;16.058;2023-02-10T04:19:30;99126.56;;;-6.71;75.76
49515;BME280;35415;47.870;16.058;2023-02-10T04:21:57;99124.38;;;-6.77;75.94
49515;BME280;35415;47.870;16.058;2023-02-10T04:24:24;99124.91;;;-6.72;76.34
49515;BME280;35415;47.870;16.058;2023-02-10T04:26:52;99112.59;;;-6.82;76.41
49515;BME280;35415;47.870;16.058;2023-02-10T04:29:20;99069.88;;;-7.18;76.51
49515;BME280;35415;47.870;16.058;2023-02-10T04:31:48;99119.03;;;-6.75;76.87
49515;BME280;35415;47.870;16.058;2023-02-10T04:34:15;99121.75;;;-6.77;76.17
49515;BME280;35415;47.870;16.058;2023-02-10T04:36:42;99108.19;;;-6.82;77.17
49515;BME280;35415;47.870;16.058;2023-02-10T04:39:09;99115.09;;;-6.81;76.53
49515;BME280;35415;47.870;16.058;2023-02-10T04:41:36;99109.97;;;-6.82;76.65
49515;BME280;35415;47.870;16.058;2023-02-10T04:44:04;99091.84;;;-6.97;77.58
49515;BME280;35415;47.870;16.058;2023-02-10T04:46:34;99110.31;;;-6.87;77.31
49515;BME280;35415;47.870;16.058;2023-02-10T04:49:01;99113.97;;;-6.89;76.99
49515;BME280;35415;47.870;16.058;2023-02-10T04:51:28;99111.47;;;-6.91;77.54
49515;BME280;35415;47.870;16.058;2023-02-10T04:53:55;99112.53;;;-6.93;77.67
49515;BME280;35415;47.870;16.058;2023-02-10T04:56:22;99116.72;;;-6.91;78.08
49515;BME280;35415;47.870;16.058;2023-02-10T04:58:50;99119.66;;;-6.95;77.94
49515;BME280;35415;47.870;16.058;2023-02-10T05:01:17;99120.38;;;-6.93;77.69
49515;BME280;35415;47.870;16.058;2023-02-10T05:03:45;99123.13;;;-6.95;77.64
49515;BME280;35415;47.870;16.058;2023-02-10T05:06:14;99109.25;;;-7.08;77.48
49515;BME280;35415;47.870;16.058;2023-02-10T05:08:42;99081.16;;;-7.17;78.22
49515;BME280;35415;47.870;16.058;2023-02-10T05:11:09;99118.22;;;-7.00;77.76
49515;BME280;35415;47.870;16.058;2023-02-10T05:13:40;99104.72;;;-7.17;77.72
49515;BME280;35415;47.870;16.058;2023-02-10T05:16:07;99122.75;;;-7.02;77.13
49515;BME280;35415;47.870;16.058;2023-02-10T05:18:35;99117.09;;;-7.08;78.14
49515;BME280;35415;47.870;16.058;2023-02-10T05:21:07;99125.59;;;-7.05;78.10
49515;BME280;35415;47.870;16.058;2023-02-10T05:23:35;99090.72;;;-7.29;77.76
49515;BME280;35415;47.870;16.058;2023-02-10T05:26:02;99123.06;;;-7.06;77.86
49515;BME280;35415;47.870;16.058;2023-02-10T05:28:30;99125.78;;;-7.08;78.49
49515;BME280;35415;47.870;16.058;2023-02-10T05:30:57;99115.31;;;-7.08;78.03
49515;BME280;35415;47.870;16.058;2023-02-10T05:33:24;99121.50;;;-7.09;77.97
49515;BME280;35415;47.870;16.058;2023-02-10T05:35:51;99121.59;;;-7.10;78.44
49515;BME280;35415;47.870;16.058;2023-02-10T05:38:20;99097.41;;;-7.25;77.83
49515;BME280;35415;47.870;16.058;2023-02-10T05:40:48;99126.72;;;-7.09;77.94
49515;BME280;35415;47.870;16.058;2023-02-10T05:43:15;99129.22;;;-7.07;78.10
49515;BME280;35415;47.870;16.058;2023-02-10T05:45:45;99132.69;;;-7.07;78.50
49515;BME280;35415;47.870;16.058;2023-02-10T05:48:14;99136.75;;;-7.03;79.01
49515;BME280;35415;47.870;16.058;2023-02-10T05:50:41;99136.75;;;-7.03;79.42
49515;BME280;35415;47.870;16.058;2023-02-10T05:53:08;99135.22;;;-7.05;79.72
49515;BME280;35415;47.870;16.058;2023-02-10T05:55:37;99140.44;;;-7.05;79.84
49515;BME280;35415;47.870;16.058;2023-02-10T05:58:04;99131.84;;;-7.07;79.60
49515;BME280;35415;47.870;16.058;2023-02-10T06:00:32;99107.97;;;-7.27;79.34
49515;BME280;35415;47.870;16.058;2023-02-10T06:02:59;99138.25;;;-7.11;79.23
49515;BME280;35415;47.870;16.058;2023-02-10T06:05:26;99143.59;;;-7.13;79.21
49515;BME280;35415;47.870;16.058;2023-02-10T06:07:53;99151.75;;;-7.05;79.46
49515;BME280;35415;47.870;16.058;2023-02-10T06:10:21;99159.59;;;-7.05;79.34
49515;BME280;35415;47.870;16.058;2023-02-10T06:12:50;99135.38;;;-7.19;79.40
49515;BME280;35415;47.870;16.058;2023-02-10T06:15:17;99135.13;;;-7.16;79.86
49515;BME280;35415;47.870;16.058;2023-02-10T06:17:44;99158.63;;;-7.04;79.93
49515;BME280;35415;47.870;16.058;2023-02-10T06:20:11;99144.66;;;-7.15;79.72
49515;BME280;35415;47.870;16.058;2023-02-10T06:22:38;99162.91;;;-7.03;80.38
49515;BME280;35415;47.870;16.058;2023-02-10T06:25:05;99179.34;;;-7.01;80.41
49515;BME280;35415;47.870;16.058;2023-02-10T06:27:32;99176.59;;;-6.99;79.61
49515;BME280;35415;47.870;16.058;2023-02-10T06:30:01;99159.78;;;-7.08;79.66
49515;BME280;35415;47.870;16.058;2023-02-10T06:32:28;99180.78;;;-6.97;79.58
49515;BME280;35415;47.870;16.058;2023-02-10T06:34:55;99137.88;;;-7.18;80.07
49515;BME280;35415;47.870;16.058;2023-02-10T06:37:22;99180.66;;;-6.95;79.82
49515;BME280;35415;47.870;16.058;2023-02-10T06:39:50;99185.78;;;-6.93;80.13
49515;BME280;35415;47.870;16.058;2023-02-10T06:42:17;99189.97;;;-6.91;80.69
49515;BME280;35415;47.870;16.058;2023-02-10T06:44:44;99191.75;;;-6.91;80.75
49515;BME280;35415;47.870;16.058;2023-02-10T06:47:13;99191.63;;;-6.90;80.76
49515;BME280;35415;47.870;16.058;2023-02-10T06:49:40;99171.59;;;-7.02;80.74
49515;BME280;35415;47.870;16.058;2023-02-10T06:52:08;99188.19;;;-6.90;81.30
49515;BME280;35415;47.870;16.058;2023-02-10T06:54:36;99188.59;;;-6.84;81.16
49515;BME280;35415;47.870;16.058;2023-02-10T06:57:04;99172.09;;;-6.97;80.91
49515;BME280;35415;47.870;16.058;2023-02-10T06:59:32;99185.25;;;-6.86;81.50
49515;BME280;35415;47.870;16.058;2023-02-10T07:02:00;99190.53;;;-6.75;81.03
49515;BME280;35415;47.870;16.058;2023-02-10T07:04:31;99183.63;;;-6.76;81.44
49515;BME280;35415;47.870;16.058;2023-02-10T07:06:58;99188.19;;;-6.67;81.09
49515;BME280;35415;47.870;16.058;2023-02-10T07:09:26;99160.88;;;-6.86;81.46
49515;BME280;35415;47.870;16.058;2023-02-10T07:11:58;99163.94;;;-6.69;81.62
49515;BME280;35415;47.870;16.058;2023-02-10T07:14:26;99156.69;;;-6.65;82.11
49515;BME280;35415;47.870;16.058;2023-02-10T07:16:53;99179.09;;;-6.50;82.55
49515;BME280;35415;47.870;16.058;2023-02-10T07:19:20;99183.88;;;-6.44;83.08
49515;BME280;35415;47.870;16.058;2023-02-10T07:21:50;99181.66;;;-6.37;83.58
49515;BME280;35415;47.870;16.058;2023-02-10T07:24:17;99182.03;;;-6.30;83.41
49515;BME280;35415;47.870;16.058;2023-02-10T07:26:44;99195.38;;;-6.22;83.63
49515;BME280;35415;47.870;16.058;2023-02-10T07:29:11;99187.31;;;-6.19;84.32
49515;BME280;35415;47.870;16.058;2023-02-10T07:31:39;99181.47;;;-6.12;84.08
49515;BME280;35415;47.870;16.058;2023-02-10T07:34:06;99182.22;;;-5.98;84.24
49515;BME280;35415;47.870;16.058;2023-02-10T07:36:33;99154.81;;;-6.06;84.77
49515;BME280;35415;47.870;16.058;2023-02-10T07:39:02;99186.03;;;-5.80;84.53
49515;BME280;35415;47.870;16.058;2023-02-10T07:41:29;99176.41;;;-5.68;84.59
49515;BME280;35415;47.870;16.058;2023-02-10T07:43:56;99171.28;;;-5.59;85.88
49515;BME280;35415;47.870;16.058;2023-02-10T07:46:26;99183.31;;;-5.45;86.03
49515;BME280;35415;47.870;16.058;2023-02-10T07:48:53;99168.06;;;-5.40;86.34
49515;BME280;35415;47.870;16.058;2023-02-10T07:51:20;99185.44;;;-5.17;86.29
49515;BME280;35415;47.870;16.058;2023-02-10T07:53:47;99166.25;;;-5.17;87.03
49515;BME280;35415;47.870;16.058;2023-02-10T07:56:15;99186.22;;;-4.82;88.05
49515;BME280;35415;47.870;16.058;2023-02-10T07:58:44;99197.03;;;-4.65;87.87
49515;BME280;35415;47.870;16.058;2023-02-10T08:01:11;99189.44;;;-4.47;88.25
49515;BME280;35415;47.870;16.058;2023-02-10T08:03:38;99184.47;;;-4.29;88.03
49515;BME280;35415;47.870;16.058;2023-02-10T08:06:06;99190.84;;;-4.11;88.61
49515;BME280;35415;47.870;16.058;2023-02-10T08:08:33;99194.28;;;-3.89;88.95
49515;BME280;35415;47.870;16.058;2023-02-10T08:11:03;99187.34;;;-3.70;88.62
49515;BME280;35415;47.870;16.058;2023-02-10T08:13:31;99195.22;;;-3.49;88.78
49515;BME280;35415;47.870;16.058;2023-02-10T08:15:58;99185.22;;;-3.24;88.77
49515;BME280;35415;47.870;16.058;2023-02-10T08:18:25;99199.03;;;-3.01;88.56
49515;BME280;35415;47.870;16.058;2023-02-10T08:20:52;99204.06;;;-2.79;88.38
49515;BME280;35415;47.870;16.058;2023-02-10T08:23:19;99185.91;;;-2.53;87.18
49515;BME280;35415;47.870;16.058;2023-02-10T08:25:47;99202.16;;;-2.19;86.30
49515;BME280;35415;47.870;16.058;2023-02-10T08:28:15;99206.72;;;-1.83;84.67
49515;BME280;35415;47.870;16.058;2023-02-10T08:30:44;99209.84;;;-1.50;82.75
49515;BME280;35415;47.870;16.058;2023-02-10T08:33:11;99200.47;;;-1.25;81.02
49515;BME280;35415;47.870;16.058;2023-02-10T08:35:38;99197.00;;;-0.98;79.50
49515;BME280;35415;47.870;16.058;2023-02-10T08:38:06;99186.47;;;-0.80;78.79
49515;BME280;35415;47.870;16.058;2023-02-10T08:40:35;99217.72;;;-0.48;77.77
49515;BME280;35415;47.870;16.058;2023-02-10T08:43:02;99197.47;;;-0.22;76.49
49515;BME280;35415;47.870;16.058;2023-02-10T08:45:29;99193.16;;;-0.05;74.66
49515;BME280;35415;47.870;16.058;2023-02-10T08:47:57;99199.34;;;0.21;73.99
49515;BME280;35415;47.870;16.058;2023-02-10T08:50:26;99191.69;;;0.44;71.25
49515;BME280;35415;47.870;16.058;2023-02-10T08:52:53;99180.56;;;0.67;69.82
49515;BME280;35415;47.870;16.058;2023-02-10T08:55:20;99196.94;;;0.96;67.67
49515;BME280;35415;47.870;16.058;2023-02-10T08:57:47;99192.22;;;1.16;66.53
49515;BME280;35415;47.870;16.058;2023-02-10T09:00:15;99190.97;;;1.36;65.18
49515;BME280;35415;47.870;16.058;2023-02-10T09:02:42;99203.63;;;1.59;64.37
49515;BME280;35415;47.870;16.058;2023-02-10T09:05:10;99200.34;;;1.73;63.42
49515;BME280;35415;47.870;16.058;2023-02-10T09:07:37;99199.34;;;1.90;62.72
49515;BME280;35415;47.870;16.058;2023-02-10T09:10:05;99196.88;;;2.05;62.24
49515;BME280;35415;47.870;16.058;2023-02-10T09:12:35;99182.59;;;2.14;60.43
49515;BME280;35415;47.870;16.058;2023-02-10T09:15:02;99190.03;;;2.35;60.41
49515;BME280;35415;47.870;16.058;2023-02-10T09:17:29;99187.03;;;2.46;59.90
49515;BME280;35415;47.870;16.058;2023-02-10T09:19:56;99195.34;;;2.59;59.17
49515;BME280;35415;47.870;16.058;2023-02-10T09:22:25;99196.63;;;2.71;58.50
49515;BME280;35415;47.870;16.058;2023-02-10T09:24:52;99188.63;;;2.80;57.63
49515;BME280;35415;47.870;16.058;2023-02-10T09:27:20;99203.50;;;3.05;55.77
49515;BME280;35415;47.870;16.058;2023-02-10T09:29:47;99202.78;;;3.19;54.58
49515;BME280;35415;47.870;16.058;2023-02-10T09:32:14;99209.69;;;3.37;53.77
49515;BME280;35415;47.870;16.058;2023-02-10T09:34:41;99198.81;;;3.46;53.67
49515;BME280;35415;47.870;16.058;2023-02-10T09:37:10;99216.75;;;3.52;53.55
49515;BME280;35415;47.870;16.058;2023-02-10T09:39:39;99209.91;;;3.58;53.14
49515;BME280;35415;47.870;16.058;2023-02-10T09:42:11;99218.81;;;3.73;52.13
49515;BME280;35415;47.870;16.058;2023-02-10T09:44:46;99181.94;;;3.62;51.96
49515;BME280;35415;47.870;16.058;2023-02-10T09:47:29;99214.72;;;3.85;52.60
49515;BME280;35415;47.870;16.058;2023-02-10T09:50:09;99204.03;;;3.93;51.56
49515;BME280;35415;47.870;16.058;2023-02-10T09:52:49;99180.28;;;3.84;51.60
49515;BME280;35415;47.870;16.058;2023-02-10T09:55:27;99179.78;;;3.88;51.78
49515;BME280;35415;47.870;16.058;2023-02-10T09:57:58;99206.28;;;4.05;51.24
49515;BME280;35415;47.870;16.058;2023-02-10T10:00:31;99215.97;;;4.20;50.33
49515;BME280;35415;47.870;16.058;2023-02-10T10:03:00;99210.75;;;4.27;51.42
49515;BME280;35415;47.870;16.058;2023-02-10T10:05:41;99163.50;;;4.06;51.16
49515;BME280;35415;47.870;16.058;2023-02-10T10:08:18;99208.94;;;4.42;50.11
49515;BME280;35415;47.870;16.058;2023-02-10T10:10:51;99212.91;;;4.46;49.68
49515;BME280;35415;47.870;16.058;2023-02-10T10:13:21;99203.84;;;4.56;49.01
49515;BME280;35415;47.870;16.058;2023-02-10T10:16:09;99211.56;;;4.65;48.85
49515;BME280;35415;47.870;16.058;2023-02-10T10:18:47;99201.00;;;4.72;48.01
49515;BME280;35415;47.870;16.058;2023-02-10T10:21:22;99186.00;;;4.56;48.23
49515;BME280;35415;47.870;16.058;2023-02-10T10:24:03;99207.81;;;4.89;47.52
49515;BME280;35415;47.870;16.058;2023-02-10T10:26:45;99194.69;;;4.88;47.13
49515;BME280;35415;47.870;16.058;2023-02-10T10:29:22;99200.16;;;5.01;46.92
49515;BME280;35415;47.870;16.058;2023-02-10T10:31:56;99196.31;;;5.03;45.97
49515;BME280;35415;47.870;16.058;2023-02-10T10:34:27;99194.19;;;5.13;46.15
49515;BME280;35415;47.870;16.058;2023-02-10T10:36:59;99155.78;;;4.93;45.26
49515;BME280;35415;47.870;16.058;2023-02-10T10:39:32;99191.25;;;5.23;45.45
49515;BME280;35415;47.870;16.058;2023-02-10T10:42:15;99176.53;;;5.27;44.94
49515;BME280;35415;47.870;16.058;2023-02-10T10:44:44;99188.38;;;5.39;43.98
49515;BME280;35415;47.870;16.058;2023-02-10T10:47:15;99153.34;;;5.28;44.17
49515;BME280;35415;47.870;16.058;2023-02-10T10:49:45;99168.75;;;5.47;44.46
49515;BME280;35415;47.870;16.058;2023-02-10T10:52:25;99164.47;;;5.53;44.30
49515;BME280;35415;47.870;16.058;2023-02-10T10:54:55;99158.31;;;5.52;43.78
49515;BME280;35415;47.870;16.058;2023-02-10T10:57:25;99146.13;;;5.64;43.12
49515;BME280;35415;47.870;16.058;2023-02-10T10:59:56;99145.75;;;5.67;42.82
49515;BME280;35415;47.870;16.058;2023-02-10T11:02:25;99149.88;;;5.70;42.98
49515;BME280;35415;47.870;16.058;2023-02-10T11:05:03;99158.91;;;5.69;42.58
49515;BME280;35415;47.870;16.058;2023-02-10T11:07:32;99146.66;;;5.74;41.85
49515;BME280;35415;47.870;16.058;2023-02-10T11:10:00;99145.88;;;5.81;42.58
49515;BME280;35415;47.870;16.058;2023-02-10T11:12:32;99169.16;;;5.87;41.57
49515;BME280;35415;47.870;16.058;2023-02-10T11:15:00;99147.72;;;5.95;41.01
49515;BME280;35415;47.870;16.058;2023-02-10T11:17:32;99107.56;;;5.67;40.89
49515;BME280;35415;47.870;16.058;2023-02-10T11:20:03;99139.88;;;5.93;41.57
49515;BME280;35415;47.870;16.058;2023-02-10T11:22:34;99077.94;;;5.62;40.40
49515;BME280;35415;47.870;16.058;2023-02-10T11:25:16;99150.03;;;6.04;40.82
49515;BME280;35415;47.870;16.058;2023-02-10T11:27:52;99154.63;;;6.11;40.63
49515;BME280;35415;47.870;16.058;2023-02-10T11:30:25;99149.72;;;6.14;40.37
49515;BME280;35415;47.870;16.058;2023-02-10T11:32:55;99129.59;;;6.18;39.73
49515;BME280;35415;47.870;16.058;2023-02-10T11:35:24;99083.41;;;5.96;39.64
49515;BME280;35415;47.870;16.058;2023-02-10T11:37:56;99131.13;;;6.27;39.27
49515;BME280;35415;47.870;16.058;2023-02-10T11:40:29;99135.66;;;6.27;40.16
49515;BME280;35415;47.870;16.058;2023-02-10T11:43:00;99129.94;;;6.37;39.16
49515;BME280;35415;47.870;16.058;2023-02-10T11:45:29;99102.13;;;6.24;38.52
49515;BME280;35415;47.870;16.058;2023-02-10T11:48:01;99138.47;;;6.47;39.10
49515;BME280;35415;47.870;16.058;2023-02-10T11:50:30;99097.00;;;6.29;38.63
49515;BME280;35415;47.870;16.058;2023-02-10T11:52:58;99128.81;;;6.52;38.14
49515;BME280;35415;47.870;16.058;2023-02-10T11:55:33;99082.63;;;6.30;38.48
49515;BME280;35415;47.870;16.058;2023-02-10T11:58:26;99125.81;;;6.62;37.49
49515;BME280;35415;47.870;16.058;2023-02-10T12:01:17;99115.16;;;6.69;37.87
49515;BME280;35415;47.870;16.058;2023-02-10T12:04:00;99123.63;;;6.72;37.31
49515;BME280;35415;47.870;16.058;2023-02-10T12:06:33;99085.47;;;6.57;35.90
49515;BME280;35415;47.870;16.058;2023-02-10T12:09:08;99084.00;;;6.54;36.90
49515;BME280;35415;47.870;16.058;2023-02-10T12:11:45;99116.88;;;6.83;36.48
49515;BME280;35415;47.870;16.058;2023-02-10T12:14:30;99056.84;;;6.51;37.53
49515;BME280;35415;47.870;16.058;2023-02-10T12:17:04;99096.22;;;6.70;36.07
49515;BME280;35415;47.870;16.058;2023-02-10T12:19:48;99123.09;;;6.90;36.88
49515;BME280;35415;47.870;16.058;2023-02-10T12:22:31;99124.69;;;6.84;35.93
49515;BME280;35415;47.870;16.058;2023-02-10T12:25:15;99131.56;;;7.00;36.21
49515;BME280;35415;47.870;16.058;2023-02-10T12:27:49;99135.13;;;7.07;36.74
49515;BME280;35415;47.870;16.058;2023-02-10T12:30:31;99081.88;;;6.78;35.43
49515;BME280;35415;47.870;16.058;2023-02-10T12:33:11;99111.81;;;7.01;35.78
49515;BME280;35415;47.870;16.058;2023-02-10T12:35:57;99072.59;;;6.74;35.24
49515;BME280;35415;47.870;16.058;2023-02-10T12:38:46;99123.59;;;7.13;35.33
49515;BME280;35415;47.870;16.058;2023-02-10T12:41:25;99128.34;;;7.18;35.54
49515;BME280;35415;47.870;16.058;2023-02-10T12:44:03;99111.72;;;7.22;34.95
49515;BME280;35415;47.870;16.058;2023-02-10T12:46:41;99075.78;;;6.97;35.35
49515;BME280;35415;47.870;16.058;2023-02-10T12:49:21;99100.75;;;7.17;35.10
49515;BME280;35415;47.870;16.058;2023-02-10T12:52:04;99115.22;;;7.36;34.99
49515;BME280;35415;47.870;16.058;2023-02-10T12:54:46;99104.94;;;7.33;34.07
49515;BME280;35415;47.870;16.058;2023-02-10T12:57:20;99117.69;;;7.38;34.32
49515;BME280;35415;47.870;16.058;2023-02-10T12:59:55;99086.34;;;7.18;34.15
49515;BME280;35415;47.870;16.058;2023-02-10T13:02:31;99108.41;;;7.27;34.74
49515;BME280;35415;47.870;16.058;2023-02-10T13:05:04;99068.00;;;7.09;34.03
49515;BME280;35415;47.870;16.058;2023-02-10T13:07:40;99107.00;;;7.31;33.70
49515;BME280;35415;47.870;16.058;2023-02-10T13:10:30;99114.81;;;7.33;34.75
49515;BME280;35415;47.870;16.058;2023-02-10T13:13:03;99090.03;;;7.11;34.18